sensor_id;sensor_type;location;lat;lon;timestamp;P1;durP1;ratioP1;P2;durP2;ratioP2
20976;SDS011;10647;51.016;3.720;2023-07-08T00:02:23;8.90;;;5.47;;
20976;SDS011;10647;51.016;3.720;2023-07-08T00:04:51;11.97;;;5.47;;
20976;SDS011;10647;51.016;3.720;2023-07-08T00:07:19;9.58;;;5.20;;
20976;SDS011;10647;51.016;3.720;2023-07-08T00:09:48;9.03;;;5.60;;
20976;SDS011;10647;51.016;3.720;2023-07-08T00:12:16;8.83;;;5.20;;
20976;SDS011;10647;51.016;3.720;2023-07-08T00:14:43;9.98;;;5.35;;
20976;SDS011;10647;51.016;3.720;2023-07-08T00:17:11;9.25;;;5.33;;
20976;SDS011;10647;51.016;3.720;2023-07-08T00:19:40;7.05;;;4.62;;
20976;SDS011;10647;51.016;3.720;2023-07-08T00:22:14;8.88;;;5.80;;
20976;SDS011;10647;51.016;3.720;2023-07-08T00:24:42;9.45;;;5.50;;
20976;SDS011;10647;51.016;3.720;2023-07-08T00:27:10;8.88;;;5.37;;
20976;SDS011;10647;51.016;3.720;2023-07-08T00:29:39;9.50;;;5.53;;
20976;SDS011;10647;51.016;3.720;2023-07-08T00:32:10;11.30;;;5.53;;
20976;SDS011;10647;51.016;3.720;2023-07-08T00:34:40;9.58;;;5.25;;
20976;SDS011;10647;51.016;3.720;2023-07-08T00:37:09;13.65;;;5.60;;
20976;SDS011;10647;51.016;3.720;2023-07-08T00:39:52;11.83;;;5.50;;
20976;SDS011;10647;51.016;3.720;2023-07-08T00:42:21;8.20;;;5.10;;
20976;SDS011;10647;51.016;3.720;2023-07-08T00:44:51;8.85;;;5.25;;
20976;SDS011;10647;51.016;3.720;2023-07-08T00:47:19;8.60;;;5.35;;
20976;SDS011;10647;51.016;3.720;2023-07-08T00:49:58;11.25;;;5.65;;
20976;SDS011;10647;51.016;3.720;2023-07-08T00:52:28;14.87;;;6.30;;
20976;SDS011;10647;51.016;3.720;2023-07-08T00:54:57;9.75;;;5.42;;
20976;SDS011;10647;51.016;3.720;2023-07-08T00:57:34;10.80;;;5.40;;
20976;SDS011;10647;51.016;3.720;2023-07-08T01:00:09;9.43;;;5.58;;
20976;SDS011;10647;51.016;3.720;2023-07-08T01:02:42;11.43;;;5.50;;
20976;SDS011;10647;51.016;3.720;2023-07-08T01:05:16;8.20;;;5.45;;
20976;SDS011;10647;51.016;3.720;2023-07-08T01:07:53;12.43;;;5.55;;
20976;SDS011;10647;51.016;3.720;2023-07-08T01:10:19;12.25;;;5.40;;
20976;SDS011;10647;51.016;3.720;2023-07-08T01:12:51;16.57;;;6.08;;
20976;SDS011;10647;51.016;3.720;2023-07-08T01:15:20;10.72;;;5.47;;
20976;SDS011;10647;51.016;3.720;2023-07-08T01:17:50;11.33;;;5.90;;
20976;SDS011;10647;51.016;3.720;2023-07-08T01:20:19;12.03;;;5.50;;
20976;SDS011;10647;51.016;3.720;2023-07-08T01:22:47;11.00;;;5.97;;
20976;SDS011;10647;51.016;3.720;2023-07-08T01:25:15;11.73;;;5.87;;
20976;SDS011;10647;51.016;3.720;2023-07-08T01:27:45;8.80;;;5.20;;
20976;SDS011;10647;51.016;3.720;2023-07-08T01:30:13;9.48;;;5.95;;
20976;SDS011;10647;51.016;3.720;2023-07-08T01:32:46;8.40;;;5.33;;
20976;SDS011;10647;51.016;3.720;2023-07-08T01:35:15;10.23;;;5.75;;
20976;SDS011;10647;51.016;3.720;2023-07-08T01:37:48;11.55;;;6.00;;
20976;SDS011;10647;51.016;3.720;2023-07-08T01:40:27;10.05;;;5.53;;
20976;SDS011;10647;51.016;3.720;2023-07-08T01:43:00;11.68;;;5.72;;
20976;SDS011;10647;51.016;3.720;2023-07-08T01:45:34;12.63;;;5.45;;
20976;SDS011;10647;51.016;3.720;2023-07-08T01:48:11;10.48;;;5.37;;
20976;SDS011;10647;51.016;3.720;2023-07-08T01:50:47;10.70;;;5.67;;
20976;SDS011;10647;51.016;3.720;2023-07-08T01:53:16;12.80;;;5.47;;
20976;SDS011;10647;51.016;3.720;2023-07-08T01:55:45;11.45;;;5.60;;
20976;SDS011;10647;51.016;3.720;2023-07-08T01:58:12;11.83;;;6.45;;
20976;SDS011;10647;51.016;3.720;2023-07-08T02:00:40;9.93;;;5.33;;
20976;SDS011;10647;51.016;3.720;2023-07-08T02:03:09;9.68;;;5.97;;
20976;SDS011;10647;51.016;3.720;2023-07-08T02:05:36;10.45;;;5.97;;
20976;SDS011;10647;51.016;3.720;2023-07-08T02:08:04;13.10;;;6.03;;
20976;SDS011;10647;51.016;3.720;2023-07-08T02:10:31;10.63;;;5.80;;
20976;SDS011;10647;51.016;3.720;2023-07-08T02:12:59;8.73;;;5.60;;
20976;SDS011;10647;51.016;3.720;2023-07-08T02:15:26;9.83;;;5.72;;
20976;SDS011;10647;51.016;3.720;2023-07-08T02:17:54;12.03;;;6.03;;
20976;SDS011;10647;51.016;3.720;2023-07-08T02:20:22;10.13;;;5.70;;
20976;SDS011;10647;51.016;3.720;2023-07-08T02:22:49;9.90;;;6.03;;
20976;SDS011;10647;51.016;3.720;2023-07-08T02:25:17;11.35;;;5.42;;
20976;SDS011;10647;51.016;3.720;2023-07-08T02:27:48;15.70;;;6.00;;
20976;SDS011;10647;51.016;3.720;2023-07-08T02:30:15;10.08;;;5.90;;
20976;SDS011;10647;51.016;3.720;2023-07-08T02:35:22;9.38;;;5.85;;
20976;SDS011;10647;51.016;3.720;2023-07-08T02:37:58;12.33;;;6.20;;
20976;SDS011;10647;51.016;3.720;2023-07-08T02:40:25;11.90;;;6.25;;
20976;SDS011;10647;51.016;3.720;2023-07-08T02:42:54;20.20;;;6.25;;
20976;SDS011;10647;51.016;3.720;2023-07-08T02:45:21;13.03;;;6.33;;
20976;SDS011;10647;51.016;3.720;2023-07-08T02:47:52;10.08;;;5.83;;
20976;SDS011;10647;51.016;3.720;2023-07-08T02:50:22;11.85;;;5.67;;
20976;SDS011;10647;51.016;3.720;2023-07-08T02:52:50;10.00;;;5.90;;
20976;SDS011;10647;51.016;3.720;2023-07-08T02:55:18;12.50;;;5.55;;
20976;SDS011;10647;51.016;3.720;2023-07-08T02:57:45;10.20;;;5.65;;
20976;SDS011;10647;51.016;3.720;2023-07-08T03:00:13;10.68;;;6.03;;
20976;SDS011;10647;51.016;3.720;2023-07-08T03:02:41;13.88;;;6.05;;
20976;SDS011;10647;51.016;3.720;2023-07-08T03:05:09;10.48;;;5.80;;
20976;SDS011;10647;51.016;3.720;2023-07-08T03:07:36;9.20;;;6.12;;
20976;SDS011;10647;51.016;3.720;2023-07-08T03:10:04;10.28;;;6.00;;
20976;SDS011;10647;51.016;3.720;2023-07-08T03:12:32;8.63;;;5.62;;
20976;SDS011;10647;51.016;3.720;2023-07-08T03:15:05;13.35;;;6.47;;
20976;SDS011;10647;51.016;3.720;2023-07-08T03:17:36;10.05;;;5.45;;
20976;SDS011;10647;51.016;3.720;2023-07-08T03:20:03;13.13;;;6.20;;
20976;SDS011;10647;51.016;3.720;2023-07-08T03:22:32;9.53;;;6.12;;
20976;SDS011;10647;51.016;3.720;2023-07-08T03:25:00;10.45;;;6.20;;
20976;SDS011;10647;51.016;3.720;2023-07-08T03:27:28;8.95;;;5.47;;
20976;SDS011;10647;51.016;3.720;2023-07-08T03:29:55;15.08;;;6.00;;
20976;SDS011;10647;51.016;3.720;2023-07-08T03:32:23;10.28;;;6.20;;
20976;SDS011;10647;51.016;3.720;2023-07-08T03:34:51;8.60;;;5.92;;
20976;SDS011;10647;51.016;3.720;2023-07-08T03:37:19;10.25;;;6.53;;
20976;SDS011;10647;51.016;3.720;2023-07-08T03:39:47;12.78;;;6.12;;
20976;SDS011;10647;51.016;3.720;2023-07-08T03:42:14;11.88;;;6.08;;
20976;SDS011;10647;51.016;3.720;2023-07-08T03:44:42;10.55;;;5.97;;
20976;SDS011;10647;51.016;3.720;2023-07-08T03:47:09;9.58;;;6.30;;
20976;SDS011;10647;51.016;3.720;2023-07-08T03:49:37;14.85;;;6.25;;
20976;SDS011;10647;51.016;3.720;2023-07-08T03:52:04;10.93;;;6.03;;
20976;SDS011;10647;51.016;3.720;2023-07-08T03:54:33;10.60;;;6.40;;
20976;SDS011;10647;51.016;3.720;2023-07-08T03:57:03;9.65;;;5.55;;
20976;SDS011;10647;51.016;3.720;2023-07-08T03:59:31;13.28;;;6.22;;
20976;SDS011;10647;51.016;3.720;2023-07-08T04:01:58;12.58;;;6.37;;
20976;SDS011;10647;51.016;3.720;2023-07-08T04:04:26;13.43;;;6.42;;
20976;SDS011;10647;51.016;3.720;2023-07-08T04:06:53;9.70;;;5.75;;
20976;SDS011;10647;51.016;3.720;2023-07-08T04:09:21;14.87;;;6.58;;
20976;SDS011;10647;51.016;3.720;2023-07-08T04:11:48;12.20;;;6.15;;
20976;SDS011;10647;51.016;3.720;2023-07-08T04:14:17;10.85;;;5.85;;
20976;SDS011;10647;51.016;3.720;2023-07-08T04:16:46;11.83;;;5.78;;
20976;SDS011;10647;51.016;3.720;2023-07-08T04:19:17;9.75;;;5.75;;
20976;SDS011;10647;51.016;3.720;2023-07-08T04:21:48;10.75;;;5.50;;
20976;SDS011;10647;51.016;3.720;2023-07-08T04:24:16;10.55;;;6.40;;
20976;SDS011;10647;51.016;3.720;2023-07-08T04:26:45;12.58;;;6.05;;
20976;SDS011;10647;51.016;3.720;2023-07-08T04:29:16;9.50;;;5.90;;
20976;SDS011;10647;51.016;3.720;2023-07-08T04:31:44;11.68;;;6.33;;
20976;SDS011;10647;51.016;3.720;2023-07-08T04:34:12;14.45;;;6.17;;
20976;SDS011;10647;51.016;3.720;2023-07-08T04:36:42;14.73;;;6.10;;
20976;SDS011;10647;51.016;3.720;2023-07-08T04:39:10;12.43;;;6.30;;
20976;SDS011;10647;51.016;3.720;2023-07-08T04:41:39;10.10;;;6.22;;
20976;SDS011;10647;51.016;3.720;2023-07-08T04:44:14;11.85;;;6.20;;
20976;SDS011;10647;51.016;3.720;2023-07-08T04:46:42;10.58;;;6.17;;
20976;SDS011;10647;51.016;3.720;2023-07-08T04:49:11;10.58;;;6.03;;
20976;SDS011;10647;51.016;3.720;2023-07-08T04:51:43;12.13;;;6.28;;
20976;SDS011;10647;51.016;3.720;2023-07-08T04:54:10;10.80;;;5.90;;
20976;SDS011;10647;51.016;3.720;2023-07-08T04:56:39;10.85;;;6.28;;
20976;SDS011;10647;51.016;3.720;2023-07-08T04:59:08;9.60;;;6.53;;
20976;SDS011;10647;51.016;3.720;2023-07-08T05:01:40;13.60;;;5.95;;
20976;SDS011;10647;51.016;3.720;2023-07-08T05:04:12;14.53;;;6.17;;
20976;SDS011;10647;51.016;3.720;2023-07-08T05:06:41;10.72;;;6.12;;
20976;SDS011;10647;51.016;3.720;2023-07-08T05:09:09;12.60;;;6.10;;
20976;SDS011;10647;51.016;3.720;2023-07-08T05:11:37;10.13;;;6.33;;
20976;SDS011;10647;51.016;3.720;2023-07-08T05:14:05;14.23;;;6.37;;
20976;SDS011;10647;51.016;3.720;2023-07-08T05:16:33;10.58;;;6.60;;
20976;SDS011;10647;51.016;3.720;2023-07-08T05:19:04;13.18;;;6.15;;
20976;SDS011;10647;51.016;3.720;2023-07-08T05:21:31;12.05;;;6.53;;
20976;SDS011;10647;51.016;3.720;2023-07-08T05:24:01;10.98;;;6.50;;
20976;SDS011;10647;51.016;3.720;2023-07-08T05:29:02;12.15;;;6.90;;
20976;SDS011;10647;51.016;3.720;2023-07-08T05:31:32;12.10;;;6.85;;
20976;SDS011;10647;51.016;3.720;2023-07-08T05:36:30;13.43;;;6.72;;
20976;SDS011;10647;51.016;3.720;2023-07-08T05:38:57;12.93;;;6.65;;
20976;SDS011;10647;51.016;3.720;2023-07-08T05:41:25;12.40;;;6.97;;
20976;SDS011;10647;51.016;3.720;2023-07-08T05:43:54;15.20;;;6.70;;
20976;SDS011;10647;51.016;3.720;2023-07-08T05:49:05;11.68;;;6.53;;
20976;SDS011;10647;51.016;3.720;2023-07-08T05:51:40;13.48;;;6.92;;
20976;SDS011;10647;51.016;3.720;2023-07-08T05:54:07;14.65;;;6.95;;
20976;SDS011;10647;51.016;3.720;2023-07-08T05:56:35;11.83;;;6.15;;
20976;SDS011;10647;51.016;3.720;2023-07-08T06:01:33;12.70;;;6.62;;
20976;SDS011;10647;51.016;3.720;2023-07-08T06:04:01;12.58;;;6.25;;
20976;SDS011;10647;51.016;3.720;2023-07-08T06:06:30;13.20;;;6.50;;
20976;SDS011;10647;51.016;3.720;2023-07-08T06:08:57;11.25;;;6.42;;
20976;SDS011;10647;51.016;3.720;2023-07-08T06:11:25;11.00;;;6.10;;
20976;SDS011;10647;51.016;3.720;2023-07-08T06:13:53;12.43;;;6.17;;
20976;SDS011;10647;51.016;3.720;2023-07-08T06:16:24;11.65;;;6.17;;
20976;SDS011;10647;51.016;3.720;2023-07-08T06:18:51;13.10;;;6.55;;
20976;SDS011;10647;51.016;3.720;2023-07-08T06:21:19;11.65;;;6.53;;
20976;SDS011;10647;51.016;3.720;2023-07-08T06:23:46;12.47;;;6.58;;
20976;SDS011;10647;51.016;3.720;2023-07-08T06:26:14;9.68;;;5.62;;
20976;SDS011;10647;51.016;3.720;2023-07-08T06:28:43;10.58;;;6.17;;
20976;SDS011;10647;51.016;3.720;2023-07-08T06:31:11;11.88;;;6.45;;
20976;SDS011;10647;51.016;3.720;2023-07-08T06:33:38;9.88;;;6.30;;
20976;SDS011;10647;51.016;3.720;2023-07-08T06:36:06;9.58;;;6.15;;
20976;SDS011;10647;51.016;3.720;2023-07-08T06:38:43;11.65;;;5.90;;
20976;SDS011;10647;51.016;3.720;2023-07-08T06:41:11;9.53;;;5.50;;
20976;SDS011;10647;51.016;3.720;2023-07-08T06:43:38;10.23;;;5.87;;
20976;SDS011;10647;51.016;3.720;2023-07-08T06:46:06;12.47;;;5.97;;
20976;SDS011;10647;51.016;3.720;2023-07-08T06:48:34;13.58;;;5.80;;
20976;SDS011;10647;51.016;3.720;2023-07-08T06:51:03;11.45;;;5.80;;
20976;SDS011;10647;51.016;3.720;2023-07-08T06:53:30;9.50;;;5.87;;
20976;SDS011;10647;51.016;3.720;2023-07-08T06:55:58;10.20;;;5.70;;
20976;SDS011;10647;51.016;3.720;2023-07-08T06:58:25;10.93;;;5.95;;
20976;SDS011;10647;51.016;3.720;2023-07-08T07:00:53;11.18;;;5.80;;
20976;SDS011;10647;51.016;3.720;2023-07-08T07:03:20;10.30;;;5.55;;
20976;SDS011;10647;51.016;3.720;2023-07-08T07:05:48;8.48;;;5.30;;
20976;SDS011;10647;51.016;3.720;2023-07-08T07:08:16;10.15;;;5.70;;
20976;SDS011;10647;51.016;3.720;2023-07-08T07:10:43;13.88;;;6.03;;
20976;SDS011;10647;51.016;3.720;2023-07-08T07:13:11;10.05;;;5.95;;
20976;SDS011;10647;51.016;3.720;2023-07-08T07:15:38;9.70;;;5.65;;
20976;SDS011;10647;51.016;3.720;2023-07-08T07:18:06;8.83;;;5.03;;
20976;SDS011;10647;51.016;3.720;2023-07-08T07:20:35;9.03;;;5.62;;
20976;SDS011;10647;51.016;3.720;2023-07-08T07:23:04;8.90;;;5.65;;
20976;SDS011;10647;51.016;3.720;2023-07-08T07:25:32;8.20;;;5.45;;
20976;SDS011;10647;51.016;3.720;2023-07-08T07:27:59;9.50;;;5.50;;
20976;SDS011;10647;51.016;3.720;2023-07-08T07:30:27;10.48;;;5.60;;
20976;SDS011;10647;51.016;3.720;2023-07-08T07:32:54;9.38;;;5.25;;
20976;SDS011;10647;51.016;3.720;2023-07-08T07:35:26;8.33;;;5.53;;
20976;SDS011;10647;51.016;3.720;2023-07-08T07:37:54;10.35;;;5.15;;
20976;SDS011;10647;51.016;3.720;2023-07-08T07:40:28;10.70;;;5.30;;
20976;SDS011;10647;51.016;3.720;2023-07-08T07:43:01;10.35;;;5.50;;
20976;SDS011;10647;51.016;3.720;2023-07-08T07:45:32;11.22;;;5.40;;
20976;SDS011;10647;51.016;3.720;2023-07-08T07:50:30;10.48;;;5.90;;
20976;SDS011;10647;51.016;3.720;2023-07-08T07:52:58;7.33;;;4.97;;
20976;SDS011;10647;51.016;3.720;2023-07-08T07:55:25;10.30;;;5.60;;
20976;SDS011;10647;51.016;3.720;2023-07-08T07:57:56;9.05;;;5.35;;
20976;SDS011;10647;51.016;3.720;2023-07-08T08:03:05;9.98;;;5.30;;
20976;SDS011;10647;51.016;3.720;2023-07-08T08:05:33;11.60;;;5.50;;
20976;SDS011;10647;51.016;3.720;2023-07-08T08:08:03;8.40;;;4.95;;
20976;SDS011;10647;51.016;3.720;2023-07-08T08:10:31;8.98;;;5.62;;
20976;SDS011;10647;51.016;3.720;2023-07-08T08:12:59;8.58;;;5.28;;
20976;SDS011;10647;51.016;3.720;2023-07-08T08:15:30;9.90;;;5.37;;
20976;SDS011;10647;51.016;3.720;2023-07-08T08:17:59;11.20;;;5.97;;
20976;SDS011;10647;51.016;3.720;2023-07-08T08:20:32;9.95;;;5.55;;
20976;SDS011;10647;51.016;3.720;2023-07-08T08:23:01;8.83;;;5.50;;
20976;SDS011;10647;51.016;3.720;2023-07-08T08:25:28;12.25;;;5.80;;
20976;SDS011;10647;51.016;3.720;2023-07-08T08:27:56;10.15;;;5.55;;
20976;SDS011;10647;51.016;3.720;2023-07-08T08:30:23;9.80;;;5.78;;
20976;SDS011;10647;51.016;3.720;2023-07-08T08:32:57;11.57;;;5.67;;
20976;SDS011;10647;51.016;3.720;2023-07-08T08:35:26;9.80;;;5.35;;
20976;SDS011;10647;51.016;3.720;2023-07-08T08:37:55;9.00;;;5.28;;
20976;SDS011;10647;51.016;3.720;2023-07-08T08:40:22;9.23;;;5.67;;
20976;SDS011;10647;51.016;3.720;2023-07-08T08:42:51;10.68;;;5.67;;
20976;SDS011;10647;51.016;3.720;2023-07-08T08:45:34;10.60;;;5.40;;
20976;SDS011;10647;51.016;3.720;2023-07-08T08:48:21;9.98;;;5.72;;
20976;SDS011;10647;51.016;3.720;2023-07-08T08:50:52;11.75;;;5.22;;
20976;SDS011;10647;51.016;3.720;2023-07-08T08:53:22;10.28;;;5.37;;
20976;SDS011;10647;51.016;3.720;2023-07-08T08:55:55;9.68;;;5.40;;
20976;SDS011;10647;51.016;3.720;2023-07-08T08:58:41;11.57;;;6.05;;
20976;SDS011;10647;51.016;3.720;2023-07-08T09:01:12;9.95;;;5.25;;
20976;SDS011;10647;51.016;3.720;2023-07-08T09:03:47;8.50;;;5.17;;
20976;SDS011;10647;51.016;3.720;2023-07-08T09:06:18;11.18;;;6.05;;
20976;SDS011;10647;51.016;3.720;2023-07-08T09:08:49;9.85;;;5.25;;
20976;SDS011;10647;51.016;3.720;2023-07-08T09:11:36;13.20;;;5.45;;
20976;SDS011;10647;51.016;3.720;2023-07-08T09:14:12;9.20;;;5.50;;
20976;SDS011;10647;51.016;3.720;2023-07-08T09:19:29;10.10;;;4.80;;
20976;SDS011;10647;51.016;3.720;2023-07-08T09:25:01;9.15;;;5.12;;
20976;SDS011;10647;51.016;3.720;2023-07-08T09:27:32;9.38;;;5.05;;
20976;SDS011;10647;51.016;3.720;2023-07-08T09:29:59;9.93;;;5.53;;
20976;SDS011;10647;51.016;3.720;2023-07-08T09:32:27;10.95;;;5.20;;
20976;SDS011;10647;51.016;3.720;2023-07-08T09:35:05;8.33;;;4.83;;
20976;SDS011;10647;51.016;3.720;2023-07-08T09:37:38;8.43;;;4.83;;
20976;SDS011;10647;51.016;3.720;2023-07-08T09:42:59;9.50;;;4.80;;
20976;SDS011;10647;51.016;3.720;2023-07-08T09:45:39;7.00;;;4.70;;
20976;SDS011;10647;51.016;3.720;2023-07-08T09:50:51;7.85;;;5.28;;
20976;SDS011;10647;51.016;3.720;2023-07-08T09:53:21;8.68;;;4.83;;
20976;SDS011;10647;51.016;3.720;2023-07-08T09:55:49;10.30;;;4.85;;
20976;SDS011;10647;51.016;3.720;2023-07-08T09:58:24;10.28;;;4.85;;
20976;SDS011;10647;51.016;3.720;2023-07-08T10:01:08;7.97;;;4.75;;
20976;SDS011;10647;51.016;3.720;2023-07-08T10:03:38;9.83;;;5.03;;
20976;SDS011;10647;51.016;3.720;2023-07-08T10:06:14;10.15;;;4.47;;
20976;SDS011;10647;51.016;3.720;2023-07-08T10:08:59;8.73;;;4.62;;
20976;SDS011;10647;51.016;3.720;2023-07-08T10:11:36;7.78;;;4.25;;
20976;SDS011;10647;51.016;3.720;2023-07-08T10:14:08;10.05;;;4.28;;
20976;SDS011;10647;51.016;3.720;2023-07-08T10:16:51;11.00;;;4.50;;
20976;SDS011;10647;51.016;3.720;2023-07-08T10:19:19;6.95;;;4.12;;
20976;SDS011;10647;51.016;3.720;2023-07-08T10:21:50;9.05;;;3.75;;
20976;SDS011;10647;51.016;3.720;2023-07-08T10:24:46;7.20;;;4.20;;
20976;SDS011;10647;51.016;3.720;2023-07-08T10:27:27;6.50;;;3.40;;
20976;SDS011;10647;51.016;3.720;2023-07-08T10:35:21;7.33;;;4.30;;
20976;SDS011;10647;51.016;3.720;2023-07-08T10:49:38;8.18;;;4.47;;
20976;SDS011;10647;51.016;3.720;2023-07-08T10:54:54;7.15;;;3.90;;
20976;SDS011;10647;51.016;3.720;2023-07-08T10:57:36;9.20;;;3.95;;
20976;SDS011;10647;51.016;3.720;2023-07-08T11:02:52;6.95;;;4.05;;
20976;SDS011;10647;51.016;3.720;2023-07-08T11:08:18;9.05;;;4.33;;
20976;SDS011;10647;51.016;3.720;2023-07-08T11:11:06;7.85;;;3.98;;
20976;SDS011;10647;51.016;3.720;2023-07-08T11:13:32;11.25;;;4.17;;
20976;SDS011;10647;51.016;3.720;2023-07-08T11:16:04;8.08;;;3.98;;
20976;SDS011;10647;51.016;3.720;2023-07-08T11:21:42;7.10;;;4.20;;
20976;SDS011;10647;51.016;3.720;2023-07-08T11:24:19;9.03;;;4.53;;
20976;SDS011;10647;51.016;3.720;2023-07-08T11:29:49;9.73;;;4.75;;
20976;SDS011;10647;51.016;3.720;2023-07-08T11:32:28;6.85;;;4.62;;
20976;SDS011;10647;51.016;3.720;2023-07-08T11:34:58;7.83;;;4.45;;
20976;SDS011;10647;51.016;3.720;2023-07-08T11:37:27;7.97;;;4.90;;
20976;SDS011;10647;51.016;3.720;2023-07-08T11:40:20;7.83;;;4.60;;
20976;SDS011;10647;51.016;3.720;2023-07-08T11:42:51;10.53;;;4.53;;
20976;SDS011;10647;51.016;3.720;2023-07-08T11:45:24;7.65;;;4.47;;
20976;SDS011;10647;51.016;3.720;2023-07-08T11:48:13;9.88;;;4.92;;
20976;SDS011;10647;51.016;3.720;2023-07-08T11:50:53;8.10;;;4.83;;
20976;SDS011;10647;51.016;3.720;2023-07-08T11:53:31;7.80;;;4.95;;
20976;SDS011;10647;51.016;3.720;2023-07-08T11:56:06;5.72;;;4.30;;
20976;SDS011;10647;51.016;3.720;2023-07-08T12:01:38;8.65;;;4.87;;
20976;SDS011;10647;51.016;3.720;2023-07-08T12:06:42;8.33;;;4.90;;
20976;SDS011;10647;51.016;3.720;2023-07-08T12:09:22;7.70;;;4.80;;
20976;SDS011;10647;51.016;3.720;2023-07-08T12:14:28;7.47;;;4.78;;
20976;SDS011;10647;51.016;3.720;2023-07-08T12:16:58;8.75;;;4.83;;
20976;SDS011;10647;51.016;3.720;2023-07-08T12:19:25;12.85;;;5.78;;
20976;SDS011;10647;51.016;3.720;2023-07-08T12:21:57;10.20;;;5.80;;
20976;SDS011;10647;51.016;3.720;2023-07-08T12:24:24;8.78;;;5.10;;
20976;SDS011;10647;51.016;3.720;2023-07-08T12:26:53;10.98;;;5.45;;
20976;SDS011;10647;51.016;3.720;2023-07-08T12:32:35;7.10;;;4.70;;
20976;SDS011;10647;51.016;3.720;2023-07-08T12:35:08;8.65;;;5.30;;
20976;SDS011;10647;51.016;3.720;2023-07-08T12:37:38;10.18;;;5.08;;
20976;SDS011;10647;51.016;3.720;2023-07-08T12:40:08;9.80;;;5.20;;
20976;SDS011;10647;51.016;3.720;2023-07-08T12:42:36;8.95;;;5.00;;
20976;SDS011;10647;51.016;3.720;2023-07-08T12:45:13;7.87;;;4.75;;
20976;SDS011;10647;51.016;3.720;2023-07-08T12:47:42;6.87;;;4.85;;
20976;SDS011;10647;51.016;3.720;2023-07-08T12:50:11;7.67;;;5.10;;
20976;SDS011;10647;51.016;3.720;2023-07-08T12:52:42;8.70;;;5.05;;
20976;SDS011;10647;51.016;3.720;2023-07-08T12:55:25;9.03;;;4.97;;
20976;SDS011;10647;51.016;3.720;2023-07-08T12:58:13;10.18;;;5.37;;
20976;SDS011;10647;51.016;3.720;2023-07-08T13:00:40;8.58;;;4.70;;
20976;SDS011;10647;51.016;3.720;2023-07-08T13:06:32;7.87;;;4.80;;
20976;SDS011;10647;51.016;3.720;2023-07-08T13:11:55;9.55;;;4.87;;
20976;SDS011;10647;51.016;3.720;2023-07-08T13:16:56;10.28;;;5.50;;
20976;SDS011;10647;51.016;3.720;2023-07-08T13:21:54;6.30;;;4.90;;
20976;SDS011;10647;51.016;3.720;2023-07-08T13:24:23;5.62;;;4.60;;
20976;SDS011;10647;51.016;3.720;2023-07-08T13:26:51;10.40;;;4.95;;
20976;SDS011;10647;51.016;3.720;2023-07-08T13:32:02;9.78;;;5.20;;
20976;SDS011;10647;51.016;3.720;2023-07-08T13:37:04;9.35;;;5.15;;
20976;SDS011;10647;51.016;3.720;2023-07-08T13:39:53;7.95;;;5.37;;
20976;SDS011;10647;51.016;3.720;2023-07-08T13:42:21;14.28;;;5.33;;
20976;SDS011;10647;51.016;3.720;2023-07-08T13:44:49;7.45;;;4.80;;
20976;SDS011;10647;51.016;3.720;2023-07-08T13:47:27;8.98;;;4.90;;
20976;SDS011;10647;51.016;3.720;2023-07-08T13:49:48;12.63;;;5.42;;
20976;SDS011;10647;51.016;3.720;2023-07-08T13:52:20;7.50;;;4.67;;
20976;SDS011;10647;51.016;3.720;2023-07-08T13:54:57;7.15;;;5.17;;
20976;SDS011;10647;51.016;3.720;2023-07-08T13:57:33;10.72;;;4.70;;
20976;SDS011;10647;51.016;3.720;2023-07-08T14:00:07;9.08;;;5.33;;
20976;SDS011;10647;51.016;3.720;2023-07-08T14:02:35;11.48;;;5.20;;
20976;SDS011;10647;51.016;3.720;2023-07-08T14:05:08;12.20;;;5.33;;
20976;SDS011;10647;51.016;3.720;2023-07-08T14:07:36;8.65;;;5.22;;
20976;SDS011;10647;51.016;3.720;2023-07-08T14:10:09;9.43;;;4.90;;
20976;SDS011;10647;51.016;3.720;2023-07-08T14:12:39;5.85;;;4.62;;
20976;SDS011;10647;51.016;3.720;2023-07-08T14:15:07;7.95;;;4.67;;
20976;SDS011;10647;51.016;3.720;2023-07-08T14:17:36;8.38;;;5.20;;
20976;SDS011;10647;51.016;3.720;2023-07-08T14:20:09;7.83;;;4.75;;
20976;SDS011;10647;51.016;3.720;2023-07-08T14:25:09;8.40;;;4.95;;
20976;SDS011;10647;51.016;3.720;2023-07-08T14:27:37;8.80;;;4.40;;
20976;SDS011;10647;51.016;3.720;2023-07-08T14:30:05;7.42;;;4.87;;
20976;SDS011;10647;51.016;3.720;2023-07-08T14:32:34;9.85;;;4.80;;
20976;SDS011;10647;51.016;3.720;2023-07-08T14:35:46;8.98;;;4.45;;
20976;SDS011;10647;51.016;3.720;2023-07-08T14:37:42;6.03;;;4.42;;
20976;SDS011;10647;51.016;3.720;2023-07-08T14:40:12;11.70;;;4.70;;
20976;SDS011;10647;51.016;3.720;2023-07-08T14:42:46;10.20;;;5.00;;
20976;SDS011;10647;51.016;3.720;2023-07-08T14:45:14;10.40;;;4.85;;
20976;SDS011;10647;51.016;3.720;2023-07-08T14:47:42;8.20;;;4.47;;
20976;SDS011;10647;51.016;3.720;2023-07-08T14:50:11;8.75;;;4.72;;
20976;SDS011;10647;51.016;3.720;2023-07-08T14:52:39;7.97;;;4.67;;
20976;SDS011;10647;51.016;3.720;2023-07-08T14:55:07;10.13;;;4.60;;
20976;SDS011;10647;51.016;3.720;2023-07-08T14:57:41;7.00;;;4.78;;
20976;SDS011;10647;51.016;3.720;2023-07-08T15:00:13;10.88;;;4.65;;
20976;SDS011;10647;51.016;3.720;2023-07-08T15:02:44;8.33;;;4.58;;
20976;SDS011;10647;51.016;3.720;2023-07-08T15:05:18;10.63;;;5.00;;
20976;SDS011;10647;51.016;3.720;2023-07-08T15:07:50;7.08;;;4.33;;
20976;SDS011;10647;51.016;3.720;2023-07-08T15:10:24;8.78;;;5.22;;
20976;SDS011;10647;51.016;3.720;2023-07-08T15:12:58;9.83;;;4.55;;
20976;SDS011;10647;51.016;3.720;2023-07-08T15:15:27;8.05;;;4.97;;
20976;SDS011;10647;51.016;3.720;2023-07-08T15:17:56;9.20;;;4.72;;
20976;SDS011;10647;51.016;3.720;2023-07-08T15:20:25;9.90;;;4.80;;
20976;SDS011;10647;51.016;3.720;2023-07-08T15:22:54;8.53;;;4.78;;
20976;SDS011;10647;51.016;3.720;2023-07-08T15:25:22;13.35;;;5.40;;
20976;SDS011;10647;51.016;3.720;2023-07-08T15:27:53;10.70;;;5.00;;
20976;SDS011;10647;51.016;3.720;2023-07-08T15:30:28;8.95;;;4.90;;
20976;SDS011;10647;51.016;3.720;2023-07-08T15:32:55;8.25;;;4.62;;
20976;SDS011;10647;51.016;3.720;2023-07-08T15:35:31;8.45;;;4.95;;
20976;SDS011;10647;51.016;3.720;2023-07-08T15:37:59;8.78;;;4.97;;
20976;SDS011;10647;51.016;3.720;2023-07-08T15:40:32;7.30;;;4.50;;
20976;SDS011;10647;51.016;3.720;2023-07-08T15:43:19;8.23;;;4.40;;
20976;SDS011;10647;51.016;3.720;2023-07-08T15:45:47;9.28;;;4.33;;
20976;SDS011;10647;51.016;3.720;2023-07-08T15:48:16;8.53;;;4.87;;
20976;SDS011;10647;51.016;3.720;2023-07-08T15:50:50;7.42;;;4.53;;
20976;SDS011;10647;51.016;3.720;2023-07-08T15:53:18;8.40;;;4.80;;
20976;SDS011;10647;51.016;3.720;2023-07-08T15:55:46;9.95;;;4.30;;
20976;SDS011;10647;51.016;3.720;2023-07-08T15:58:23;6.65;;;3.90;;
20976;SDS011;10647;51.016;3.720;2023-07-08T16:00:53;11.73;;;4.45;;
20976;SDS011;10647;51.016;3.720;2023-07-08T16:03:22;10.68;;;4.20;;
20976;SDS011;10647;51.016;3.720;2023-07-08T16:05:55;7.67;;;4.85;;
20976;SDS011;10647;51.016;3.720;2023-07-08T16:08:24;7.67;;;4.20;;
20976;SDS011;10647;51.016;3.720;2023-07-08T16:11:00;7.97;;;4.50;;
20976;SDS011;10647;51.016;3.720;2023-07-08T16:13:32;7.60;;;4.40;;
20976;SDS011;10647;51.016;3.720;2023-07-08T16:16:03;9.30;;;3.80;;
20976;SDS011;10647;51.016;3.720;2023-07-08T16:18:31;6.95;;;3.87;;
20976;SDS011;10647;51.016;3.720;2023-07-08T16:21:00;7.65;;;4.17;;
20976;SDS011;10647;51.016;3.720;2023-07-08T16:23:28;10.58;;;4.42;;
20976;SDS011;10647;51.016;3.720;2023-07-08T16:25:55;10.08;;;4.10;;
20976;SDS011;10647;51.016;3.720;2023-07-08T16:28:32;6.33;;;4.30;;
20976;SDS011;10647;51.016;3.720;2023-07-08T16:31:14;11.30;;;4.42;;
20976;SDS011;10647;51.016;3.720;2023-07-08T16:33:38;9.53;;;4.53;;